Terminal Aerodrome Forecast
Issued by NWS

Home | Current Version | Previous Version | Text Only | Print | Product List | Glossary Off
Versions: 1 2 3 4 5 6 7 8 9 10 11 12 13 14 15 16

000
FTUS43 KMPX 170500
TAFAXN
TAF
KAXN 170520Z 1706/1806 33005KT P6SM SCT015
      TEMPO 1707/1709 P6SM -SN BKN012
     FM170900 32005KT P6SM BKN012
     FM171500 01005KT P6SM SCT020 BKN250
     FM172200 05004KT P6SM SCT250
     FM180300 08003KT P6SM SCT250=

USA.gov is the U.S. government's official web portal to all federal, state and local government web resources and services.